Stations météo

réclame
Mon MeteoGroup
Retie, Belgique (6464): Température de l'air & dewpoint: 25.05.2020 23:00:00 - 31.05.2020 23:00:00 (CEST)Retie, Belgique (6464): Vitesse du vent & gusts: 25.05.2020 23:00:00 - 31.05.2020 23:00:00 (CEST)Retie, Belgique (6464): Direction du vent: 25.05.2020 23:00:00 - 31.05.2020 23:00:00 (CEST)Retie, Belgique (6464): reduced air pressure: 25.05.2020 23:00:00 - 31.05.2020 23:00:00 (CEST)Retie, Belgique (6464): Ensoleillement: 25.05.2020 23:00:00 - 31.05.2020 23:00:00 (CEST)Retie, Belgique (6464): Quantités de précipitations: 25.05.2020 23:00:00 - 31.05.2020 23:00:00 (CEST)
Date & Time tt [°C] td [°C] ff [km/h] ff [knt] fx [km/h] fx [knt] dd ppp [hPa] sd [min] rr [mm]
31.05.2020 23:00:00 15,3 6,1 4 2 11 6 NE 1022,3 0 0,0
31.05.2020 22:00:00 17,7 5,8 4 2 21 12 NE 1022,0 0 0,0
31.05.2020 21:00:00 19,6 5,7 11 6 26 14 ENE 1021,8 33 0,0
31.05.2020 20:00:00 20,8 6,0 11 6 29 15 ENE 1021,6 60 0,0
31.05.2020 19:00:00 21,6 5,9 17 9 29 16 E 1021,3 60 0,0
31.05.2020 18:00:00 22,0 6,1 12 6 34 18 NE 1021,5 60 0,0
31.05.2020 17:00:00 22,0 5,5 12 7 31 17 ENE 1021,7 60 0,0
31.05.2020 16:00:00 21,5 4,0 18 10 35 19 ENE 1021,9 60 0,0
31.05.2020 15:00:00 21,0 4,4 12 7 34 18 NE 1022,4 60 0,0
31.05.2020 14:00:00 20,1 3,7 14 8 31 17 NE 1022,8 60 0,0
31.05.2020 13:00:00 20,0 3,3 13 7 33 18 ENE 1023,1 60 0,0
31.05.2020 12:00:00 19,3 5,2 13 7 31 17 NE 1023,2 60 0,0
31.05.2020 11:00:00 19,0 6,2 11 6 32 17 NE 1023,6 60 0,0
31.05.2020 10:00:00 18,2 5,5 17 9 30 16 E 1023,7 60 0,0
31.05.2020 09:00:00 16,9 6,4 10 6 21 11 ENE 1023,5 60 0,0
31.05.2020 08:00:00 14,9 6,6 7 4 13 7 ENE 1023,6 60 0,0
31.05.2020 07:00:00 10,6 6,5 0 0 5 3 N 1023,4 37 0,0
31.05.2020 06:00:00 10,6 5,3 4 2 9 5 NE 1023,2 0 0,0
31.05.2020 05:00:00 9,4 5,0 4 2 9 5 NNE 1023,1 0 0,0
31.05.2020 04:00:00 12,5 4,8 5 3 13 7 NE 1023,3 0 0,0
31.05.2020 03:00:00 13,5 4,5 6 3 13 7 NE 1023,0 0 0,0
31.05.2020 02:00:00 14,1 5,0 7 4 10 6 ENE 1022,9 0 0,0
31.05.2020 01:00:00 15,3 5,0 5 3 16 9 ENE 1022,8 0 0,0
31.05.2020 00:00:00 17,7 5,1 11 6 22 12 E 1022,6 0 0,0
30.05.2020 23:00:00 18,6 4,9 8 5 17 9 E 1022,4 0 0,0
30.05.2020 22:00:00 19,4 3,6 6 3 26 14 NE 1021,7 0 0,0
30.05.2020 21:00:00 21,4 4,3 8 4 22 12 ENE 1021,3 30 0,0
30.05.2020 20:00:00 22,4 4,4 14 8 29 16 ENE 1021,3 58 0,0
30.05.2020 19:00:00 23,4 5,2 13 7 27 14 E 1021,3 59 0,0
30.05.2020 18:00:00 23,7 4,8 10 6 32 17 ENE 1021,6 59 0,0
30.05.2020 17:00:00 24,1 4,6 13 7 27 15 E 1021,9 60 0,0
30.05.2020 16:00:00 23,8 4,5 13 7 29 16 E 1022,3 60 0,0
30.05.2020 15:00:00 23,2 5,2 12 6 29 16 ENE 1022,9 57 0,0
30.05.2020 14:00:00 22,6 4,8 14 8 37 20 ENE 1023,5 60 0,0
30.05.2020 13:00:00 22,4 4,3 16 9 34 18 E 1024,0 60 0,0
30.05.2020 12:00:00 21,9 4,5 16 9 37 20 E 1024,4 60 0,0
30.05.2020 11:00:00 21,3 4,3 21 11 - - E 1024,5 60 0,0
30.05.2020 10:00:00 19,1 6,2 11 6 24 13 E 1024,8 60 0,0
30.05.2020 09:00:00 16,9 6,9 8 4 14 8 ENE 1024,9 60 0,0
30.05.2020 08:00:00 14,2 6,5 7 4 16 8 ENE 1024,9 60 0,0
30.05.2020 07:00:00 12,3 5,7 9 5 18 10 ENE 1024,6 39 0,0
30.05.2020 06:00:00 11,3 5,2 8 5 13 7 ENE 1024,5 0 0,0
30.05.2020 05:00:00 11,5 5,0 6 3 13 7 NE 1024,6 0 0,0
30.05.2020 04:00:00 11,9 4,9 5 3 13 7 NE 1024,5 0 0,0
30.05.2020 03:00:00 12,1 4,6 6 3 13 7 NNE 1024,4 0 0,0
30.05.2020 02:00:00 10,7 5,1 4 2 6 4 NE 1024,6 0 0,0
30.05.2020 01:00:00 11,4 5,5 4 2 7 4 NE 1024,6 0 0,0
30.05.2020 00:00:00 12,3 5,7 4 2 7 4 NE 1024,5 0 0,0
29.05.2020 23:00:00 15,3 5,9 4 2 7 4 NE 1024,4 0 0,0
29.05.2020 22:00:00 17,4 5,6 4 2 10 6 NNE 1024,0 0 0,0
29.05.2020 21:00:00 20,0 4,9 5 3 19 10 NE 1024,1 32 0,0
29.05.2020 20:00:00 21,9 5,5 7 4 19 10 ENE 1024,1 60 0,0
29.05.2020 19:00:00 22,5 4,4 10 6 23 12 ENE 1024,5 60 0,0
29.05.2020 18:00:00 22,7 4,5 9 5 24 13 ENE 1024,9 60 0,0
29.05.2020 17:00:00 23,0 4,7 14 8 26 14 ENE 1025,5 60 0,0
29.05.2020 16:00:00 22,4 4,5 9 5 26 14 NNE 1026,2 60 0,0
29.05.2020 15:00:00 21,9 5,4 9 5 22 12 ENE 1026,9 60 0,0
29.05.2020 14:00:00 21,2 5,5 11 6 21 11 NE 1027,7 60 0,0
29.05.2020 13:00:00 20,7 5,9 12 6 22 12 E 1028,6 60 0,0
29.05.2020 12:00:00 19,6 7,2 9 5 19 11 ENE 1029,0 60 0,0
29.05.2020 11:00:00 17,5 8,2 7 4 14 8 NNE 1029,5 60 0,0
29.05.2020 10:00:00 15,6 7,5 8 4 13 7 NE 1029,9 60 0,0
29.05.2020 09:00:00 13,2 6,6 9 5 16 8 NE 1030,0 60 0,0
29.05.2020 08:00:00 11,2 6,1 7 4 13 7 NE 1030,3 60 0,0
29.05.2020 07:00:00 9,0 5,6 5 3 9 5 NE 1030,5 39 0,0
29.05.2020 06:00:00 7,4 4,8 4 2 9 5 NNE 1030,3 0 0,0
29.05.2020 05:00:00 8,3 4,9 4 2 12 6 NE 1030,4 0 0,0
29.05.2020 04:00:00 9,5 5,0 4 2 13 7 NNE 1030,8 0 0,0
29.05.2020 03:00:00 10,7 5,1 6 3 14 7 NE 1030,8 0 0,0
29.05.2020 02:00:00 12,0 4,3 7 4 16 9 NNE 1031,0 0 0,0
29.05.2020 01:00:00 13,6 3,3 8 5 19 10 NE 1031,3 0 0,0
29.05.2020 00:00:00 14,9 3,5 7 4 15 8 NE 1031,1 0 0,0
28.05.2020 23:00:00 15,8 3,7 8 4 18 10 NE 1030,8 0 0,0
28.05.2020 22:00:00 17,4 4,0 4 2 13 7 NNE 1030,4 0 0,0
28.05.2020 21:00:00 19,1 3,9 8 4 19 11 NE 1030,3 26 0,0
28.05.2020 20:00:00 20,2 4,3 11 6 24 13 ENE 1030,6 60 0,0
28.05.2020 19:00:00 20,6 4,7 10 6 25 13 NE 1030,9 60 0,0
28.05.2020 18:00:00 21,1 4,0 13 7 26 14 ENE 1031,3 60 0,0
28.05.2020 17:00:00 21,1 4,3 10 5 24 13 NNE 1031,7 60 0,0
28.05.2020 16:00:00 20,6 4,0 11 6 27 15 NE 1032,4 60 0,0
28.05.2020 15:00:00 20,2 3,7 13 7 28 15 NE 1032,9 60 0,0
28.05.2020 14:00:00 19,6 5,2 11 6 27 14 NNE 1033,5 60 0,0
28.05.2020 13:00:00 18,8 6,2 10 5 26 14 NNE 1033,9 60 0,0
28.05.2020 12:00:00 17,9 5,8 11 6 24 13 NE 1034,5 60 0,0
28.05.2020 11:00:00 16,5 5,2 13 7 27 15 ENE 1034,9 60 0,0
28.05.2020 10:00:00 15,1 5,5 13 7 25 14 NE 1035,2 60 0,0
28.05.2020 09:00:00 13,5 6,0 11 6 29 16 ENE 1035,3 60 0,0
28.05.2020 08:00:00 11,8 6,0 11 6 24 13 ENE 1035,3 60 0,0
28.05.2020 07:00:00 9,9 5,8 5 3 14 8 NE 1035,5 38 0,0
28.05.2020 06:00:00 9,0 5,2 5 3 13 7 NNE 1035,2 0 0,0
28.05.2020 05:00:00 9,6 5,1 5 3 17 9 NNE 1035,0 0 0,0
28.05.2020 04:00:00 11,0 5,0 8 5 20 11 NE 1034,9 0 0,0
28.05.2020 03:00:00 11,7 5,6 5 3 16 9 NNE 1034,9 0 0,0
28.05.2020 02:00:00 12,0 9,2 4 2 10 5 N 1034,6 0 0,0
28.05.2020 01:00:00 12,3 9,4 4 2 9 5 N 1034,5 0 0,0
28.05.2020 00:00:00 13,0 9,5 4 2 7 4 NNW 1034,4 0 0,0
27.05.2020 23:00:00 14,3 9,2 4 2 16 8 N 1034,1 0 0,0
27.05.2020 22:00:00 15,8 8,8 6 4 17 9 NNW 1033,7 0 0,0
27.05.2020 21:00:00 17,9 9,0 7 4 24 13 NNW 1033,2 31 0,0
27.05.2020 20:00:00 20,1 9,2 11 6 28 15 NNW 1032,9 60 0,0
27.05.2020 19:00:00 21,4 7,4 11 6 26 14 NNW 1032,8 60 0,0
27.05.2020 18:00:00 21,8 7,8 10 6 29 16 NNW 1033,2 60 0,0
27.05.2020 17:00:00 22,2 8,9 12 6 26 14 N 1033,2 60 0,0
27.05.2020 16:00:00 23,2 9,5 7 4 25 13 N 1033,1 60 0,0
27.05.2020 15:00:00 22,5 9,4 10 5 24 13 NW 1033,4 60 0,0
27.05.2020 14:00:00 22,5 9,5 7 4 24 13 N 1033,9 58 0,0
27.05.2020 13:00:00 21,8 10,1 8 5 22 12 NW 1034,2 60 0,0
27.05.2020 12:00:00 21,0 11,0 9 5 15 8 NW 1034,5 60 0,0
27.05.2020 11:00:00 20,0 13,2 6 4 13 7 N 1034,5 60 0,0
27.05.2020 10:00:00 17,8 13,2 5 3 9 5 N 1034,8 60 0,0
27.05.2020 09:00:00 15,6 13,3 5 3 11 6 N 1034,8 60 0,0
27.05.2020 08:00:00 13,8 12,0 4 2 9 5 N 1034,8 60 0,0
27.05.2020 07:00:00 10,6 9,5 4 2 6 4 NNW 1034,7 20 0,0
27.05.2020 06:00:00 9,3 8,7 4 2 5 3 NNW 1034,7 0 0,0
27.05.2020 05:00:00 10,5 9,1 4 2 6 3 NNW 1034,5 0 0,0
27.05.2020 04:00:00 10,1 8,9 0 0 4 2 N 1034,6 0 0,0
27.05.2020 03:00:00 11,3 8,6 0 0 4 2 N 1034,6 0 0,0
27.05.2020 02:00:00 12,8 8,7 0 0 5 3 N 1034,8 0 0,0
27.05.2020 01:00:00 14,5 8,5 4 2 7 4 NNW 1035,0 0 0,0
27.05.2020 00:00:00 16,0 8,3 4 2 13 7 N 1035,1 0 0,0
26.05.2020 23:00:00 18,0 10,1 6 4 16 9 NNW 1035,0 0 0,0
26.05.2020 22:00:00 19,1 9,6 4 2 7 4 NNW 1034,4 0 0,0
26.05.2020 21:00:00 21,2 8,3 4 2 11 6 N 1034,1 31 0,0
26.05.2020 20:00:00 22,5 8,5 7 4 16 9 N 1033,9 60 0,0
26.05.2020 19:00:00 23,6 9,1 8 5 19 10 NE 1033,9 60 0,0
26.05.2020 18:00:00 23,9 8,5 7 4 17 9 N 1034,0 60 0,0
26.05.2020 17:00:00 23,9 8,6 8 4 22 12 NNW 1034,3 58 0,0
26.05.2020 16:00:00 23,6 8,4 9 5 26 14 NNW 1034,7 58 0,0
26.05.2020 15:00:00 23,3 10,0 8 4 19 10 NW 1035,0 53 0,0
26.05.2020 14:00:00 22,6 10,8 7 4 18 10 N 1035,4 59 0,0
26.05.2020 13:00:00 21,6 10,6 7 4 21 11 NE 1035,8 59 0,0
26.05.2020 12:00:00 20,4 8,9 6 3 13 7 E 1036,3 60 0,0
26.05.2020 11:00:00 18,9 10,0 4 2 9 5 SE 1036,4 60 0,0
26.05.2020 10:00:00 17,4 10,5 4 2 8 4 ESE 1036,5 60 0,0
26.05.2020 09:00:00 15,4 11,0 5 3 8 4 E 1036,5 60 0,0
26.05.2020 08:00:00 11,5 10,7 0 0 3 1 N 1036,4 57 0,0
26.05.2020 07:00:00 7,8 7,5 0 0 3 1 N 1036,2 18 0,0
26.05.2020 06:00:00 7,0 6,9 4 2 4 2 NNW 1035,9 0 0,0
26.05.2020 05:00:00 7,3 7,2 0 0 4 2 N 1035,6 0 0,0
26.05.2020 04:00:00 7,3 7,2 0 0 3 2 N 1035,5 0 0,0
26.05.2020 03:00:00 8,8 8,5 0 0 1 0 N 1035,5 0 0,0
26.05.2020 02:00:00 9,3 8,1 0 0 2 1 N 1035,5 0 0,0
26.05.2020 01:00:00 11,2 9,4 0 0 3 2 N 1035,6 0 0,0
26.05.2020 00:00:00 12,9 9,5 0 0 5 3 N 1035,3 0 0,0
25.05.2020 23:00:00 14,9 9,5 4 2 8 4 N 1035,3 0 0,0

tt = Température de l'air
td = dewpoint
ff = Vitesse du vent
fx = gusts
dd = Direction du vent
ppp = reduced air pressure
sd = Ensoleillement
rr = Quantités de précipitations

stations d'obs. à proximité